Smoot, Wyoming
Current Conditions -  °F | °C
As of 6:15 AM on Sunday 23 Nov 2014 (Local Time) from KAFO Reporting Station
Broken Clouds Broken Clouds  
Wind Chill: 19°   Ceiling: 2600
Heat Index: 28°   Visibility: 10mi
Dew Point: 21°   Wind: 10mph
Humidity: 74%   Direction: 320°NW
Pressure: 29.96"   Gusts: 17mph
Location:  42.62°N, 110.92°W
Report Text: KAFO 231315Z AUTO 32009G15KT 10SM SCT022 BKN026 BKN030 M02/M06 A2996 RMK AO2
Loading
Personal Weather Stations






























Interactive Weather Map New forecast layout! Learn more

10-Day Weather Forecast

Advertisements
Track Severe Weather on mobile